Atkins, Virginia
Current Conditions -  °F | °C
As of 2:55 AM on Monday 24 Nov 2014 (Local Time) from KMKJ Reporting Station
Overcast Overcast  
Wind Chill: 58°   Ceiling: 3900
Heat Index: 58°   Visibility: 10mi
Dew Point: 49°   Wind: 5mph
Humidity: 72%   Direction: 250°WSW
Pressure: 29.68"   Gusts: NA
Location:  36.87°N, 81.4°W
Report Text: KMKJ 240755Z AUTO 25004KT 10SM BKN039 OVC050 14/09 A2968 RMK AO2 T01420092
Loading
Personal Weather Stations






























Interactive Weather Map New forecast layout! Learn more

10-Day Weather Forecast

Advertisements
Track Severe Weather on mobile